Terminal Aerodrome Forecast
Issued by NWS Shreveport, LA

Home | Current Version | Previous Version | Text Only | Print | Product List | Glossary On
Versions: 1 2 3 4 5 6 7 8 9 10 11 12 13 14 15 16 17 18 19 20 21 22 23 24 25 26
000
FTUS44 KSHV 241741
TAFTXK
TAF
KTXK 241741Z 2418/2518 16009G19KT P6SM BKN020 OVC030
     FM242000 16010KT P6SM VCTS SCT040CB BKN100 BKN250
      TEMPO 2421/2501 VRB15G25KT 3SM TSRA BR BKN035CB
     FM250100 14006KT P6SM VCTS OVC035CB
     FM250400 15007KT P6SM SCT045 SCT120 BKN250
     FM251000 14008KT P6SM BKN015 OVC025=

USA.gov is the U.S. government's official web portal to all federal, state and local government web resources and services.